createdAt,value
2023-05-20T00:00:47.261Z,22.56
2023-05-20T00:01:47.339Z,22.54
2023-05-20T00:02:47.454Z,22.56
2023-05-20T00:03:47.639Z,22.57
2023-05-20T00:04:47.571Z,22.57
2023-05-20T00:05:47.624Z,22.54
2023-05-20T00:06:47.684Z,22.53
2023-05-20T00:07:47.748Z,22.56
2023-05-20T00:08:47.805Z,22.54
2023-05-20T00:09:47.897Z,22.54
2023-05-20T00:10:47.974Z,22.54
2023-05-20T00:11:48.049Z,22.54
2023-05-20T00:12:48.124Z,22.56
2023-05-20T00:13:48.191Z,22.56
2023-05-20T00:14:48.264Z,22.54
2023-05-20T00:15:48.354Z,22.56
2023-05-20T00:16:48.438Z,22.54
2023-05-20T00:17:48.620Z,22.53
2023-05-20T00:18:48.654Z,22.53
2023-05-20T00:19:48.701Z,22.54
2023-05-20T00:20:48.782Z,22.57
2023-05-20T00:21:48.849Z,22.56
2023-05-20T00:22:48.916Z,22.54
2023-05-20T00:23:49.001Z,22.53
2023-05-20T00:24:49.019Z,22.56
2023-05-20T00:25:49.068Z,22.53
2023-05-20T00:26:49.110Z,22.53
2023-05-20T00:27:49.181Z,22.54
2023-05-20T00:28:49.204Z,22.54
2023-05-20T00:29:49.291Z,22.56
2023-05-20T00:30:49.316Z,22.53
2023-05-20T00:31:49.471Z,22.51
2023-05-20T00:32:49.435Z,22.51
2023-05-20T00:33:49.449Z,22.53
2023-05-20T00:34:49.506Z,22.50
2023-05-20T00:35:49.540Z,22.50
2023-05-20T00:36:49.562Z,22.53
2023-05-20T00:37:49.589Z,22.53
2023-05-20T00:38:49.627Z,22.50
2023-05-20T00:39:49.624Z,22.50
2023-05-20T00:40:49.693Z,22.50
2023-05-20T00:41:49.673Z,22.51
2023-05-20T00:42:49.715Z,22.51
2023-05-20T00:43:49.733Z,22.50
2023-05-20T00:44:49.754Z,22.50
2023-05-20T00:45:49.787Z,22.53
2023-05-20T00:46:49.806Z,22.50
2023-05-20T00:47:49.866Z,22.51
2023-05-20T00:48:49.848Z,22.51
2023-05-20T00:49:50.593Z,22.48
2023-05-20T00:50:49.941Z,22.50
2023-05-20T00:51:50.008Z,22.50
2023-05-20T00:52:50.082Z,22.50
2023-05-20T00:53:50.164Z,22.50
2023-05-20T00:54:50.254Z,22.50
2023-05-20T00:55:50.254Z,22.48
2023-05-20T00:56:50.295Z,22.51
2023-05-20T00:57:50.325Z,22.51
2023-05-20T00:58:50.405Z,22.50
2023-05-20T00:59:50.443Z,22.47
2023-05-20T01:00:50.477Z,22.50
2023-05-20T01:01:50.606Z,22.48
2023-05-20T01:02:50.624Z,22.47
2023-05-20T01:03:50.592Z,22.51
2023-05-20T01:04:50.588Z,22.50
2023-05-20T01:05:50.613Z,22.48
2023-05-20T01:06:50.664Z,22.48
2023-05-20T01:07:50.684Z,22.48
2023-05-20T01:08:50.704Z,22.48
2023-05-20T01:09:50.732Z,22.47
2023-05-20T01:10:50.758Z,22.47
2023-05-20T01:11:50.817Z,22.48
2023-05-20T01:12:50.899Z,22.48
2023-05-20T01:13:50.931Z,22.47
2023-05-20T01:14:50.966Z,22.50
2023-05-20T01:15:51.076Z,22.47
2023-05-20T01:16:51.089Z,22.47
2023-05-20T01:17:51.212Z,22.46
2023-05-20T01:18:51.252Z,22.46
2023-05-20T01:19:51.247Z,22.47
2023-05-20T01:20:51.296Z,22.46
2023-05-20T01:21:51.351Z,22.47
2023-05-20T01:22:51.377Z,22.48
2023-05-20T01:23:51.430Z,22.46
2023-05-20T01:24:51.496Z,22.47
2023-05-20T01:25:51.542Z,22.44
2023-05-20T01:26:51.564Z,22.47
2023-05-20T01:27:51.619Z,22.46
2023-05-20T01:28:51.706Z,22.46
2023-05-20T01:29:51.765Z,22.44
2023-05-20T01:30:51.867Z,22.44
2023-05-20T01:31:51.880Z,22.43
2023-05-20T01:32:51.959Z,22.44
2023-05-20T01:33:51.984Z,22.47
2023-05-20T01:34:52.103Z,22.46
2023-05-20T01:35:52.127Z,22.44
2023-05-20T01:36:52.190Z,22.44
2023-05-20T01:37:52.273Z,22.46
2023-05-20T01:38:52.328Z,22.46
2023-05-20T01:39:52.400Z,22.44
2023-05-20T01:40:52.486Z,22.46
2023-05-20T01:41:52.472Z,22.46
2023-05-20T01:42:52.520Z,22.43
2023-05-20T01:43:52.565Z,22.44
2023-05-20T01:44:52.596Z,22.44
2023-05-20T01:45:52.631Z,22.44
2023-05-20T01:46:52.652Z,22.46
2023-05-20T01:47:52.760Z,22.43
2023-05-20T01:48:52.741Z,22.43
2023-05-20T01:49:52.774Z,22.44
2023-05-20T01:50:52.806Z,22.43
2023-05-20T01:51:52.826Z,22.44
2023-05-20T01:52:52.856Z,22.43
2023-05-20T01:53:52.882Z,22.44
2023-05-20T01:54:52.894Z,22.42
2023-05-20T01:55:52.935Z,22.43
2023-05-20T01:56:52.965Z,22.43
2023-05-20T01:57:52.991Z,22.42
2023-05-20T01:58:53.011Z,22.43
2023-05-20T01:59:53.044Z,22.43
2023-05-20T02:00:53.078Z,22.42
2023-05-20T02:01:53.142Z,22.43
2023-05-20T02:02:53.152Z,22.43
2023-05-20T02:03:53.140Z,22.42
2023-05-20T02:04:53.157Z,22.42
2023-05-20T02:05:53.251Z,22.42
2023-05-20T02:06:53.218Z,22.42
2023-05-20T02:07:53.225Z,22.42
2023-05-20T02:08:53.253Z,22.40
2023-05-20T02:09:53.272Z,22.42
2023-05-20T02:10:53.285Z,22.42
2023-05-20T02:11:53.300Z,22.42
2023-05-20T02:12:53.348Z,22.42
2023-05-20T02:13:53.361Z,22.42
2023-05-20T02:14:53.369Z,22.42
2023-05-20T02:15:53.422Z,22.42
2023-05-20T02:16:53.460Z,22.40
2023-05-20T02:17:53.538Z,22.40
2023-05-20T02:18:53.653Z,22.42
2023-05-20T02:19:53.532Z,22.40
2023-05-20T02:20:53.526Z,22.37
2023-05-20T02:21:53.631Z,22.39
2023-05-20T02:22:53.549Z,22.39
2023-05-20T02:23:53.589Z,22.42
2023-05-20T02:24:53.627Z,22.42
2023-05-20T02:25:53.610Z,22.40
2023-05-20T02:26:53.637Z,22.37
2023-05-20T02:27:53.665Z,22.40
2023-05-20T02:28:53.795Z,22.39
2023-05-20T02:29:53.716Z,22.37
2023-05-20T02:30:53.753Z,22.37
2023-05-20T02:31:53.910Z,22.37
2023-05-20T02:32:53.876Z,22.39
2023-05-20T02:33:53.936Z,22.40
2023-05-20T02:34:53.844Z,22.37
2023-05-20T02:35:53.869Z,22.40
2023-05-20T02:36:53.866Z,22.39
2023-05-20T02:37:53.894Z,22.39
2023-05-20T02:38:53.946Z,22.37
2023-05-20T02:39:53.974Z,22.40
2023-05-20T02:40:53.955Z,22.36
2023-05-20T02:41:53.968Z,22.37
2023-05-20T02:42:54.005Z,22.37
2023-05-20T02:43:54.038Z,22.37
2023-05-20T02:44:54.043Z,22.40
2023-05-20T02:45:54.076Z,22.39
2023-05-20T02:46:54.084Z,22.39
2023-05-20T02:47:54.199Z,22.36
2023-05-20T02:48:54.158Z,22.37
2023-05-20T02:49:54.176Z,22.37
2023-05-20T02:50:54.192Z,22.37
2023-05-20T02:51:54.236Z,22.39
2023-05-20T02:52:54.256Z,22.35
2023-05-20T02:53:54.265Z,22.36
2023-05-20T02:54:54.303Z,22.37
2023-05-20T02:55:54.315Z,22.39
2023-05-20T02:56:54.333Z,22.37
2023-05-20T02:57:54.373Z,22.36
2023-05-20T02:58:54.409Z,22.37
2023-05-20T02:59:54.411Z,22.37
2023-05-20T03:00:54.435Z,22.33
2023-05-20T03:01:54.512Z,22.36
2023-05-20T03:02:54.533Z,22.36
2023-05-20T03:03:54.540Z,22.36
2023-05-20T03:04:54.719Z,22.35
2023-05-20T03:05:54.578Z,22.35
2023-05-20T03:06:54.581Z,22.36
2023-05-20T03:07:54.615Z,22.36
2023-05-20T03:08:54.637Z,22.36
2023-05-20T03:09:54.661Z,22.37
2023-05-20T03:10:54.710Z,22.35
2023-05-20T03:11:54.716Z,22.35
2023-05-20T03:12:54.712Z,22.36
2023-05-20T03:13:54.753Z,22.36
2023-05-20T03:14:54.765Z,22.35
2023-05-20T03:15:54.811Z,22.36
2023-05-20T03:16:54.799Z,22.36
2023-05-20T03:17:54.857Z,22.35
2023-05-20T03:18:54.895Z,22.36
2023-05-20T03:19:54.857Z,22.35
2023-05-20T03:20:54.888Z,22.36
2023-05-20T03:21:54.916Z,22.36
2023-05-20T03:22:54.925Z,22.36
2023-05-20T03:23:54.969Z,22.35
2023-05-20T03:24:54.963Z,22.35
2023-05-20T03:25:54.990Z,22.36
2023-05-20T03:26:54.990Z,22.33
2023-05-20T03:27:55.034Z,22.35
2023-05-20T03:28:55.044Z,22.33
2023-05-20T03:29:55.062Z,22.33
2023-05-20T03:30:55.115Z,22.33
2023-05-20T03:31:55.152Z,22.33
2023-05-20T03:32:55.178Z,22.33
2023-05-20T03:33:55.153Z,22.35
2023-05-20T03:34:55.171Z,22.33
2023-05-20T03:35:55.220Z,22.33
2023-05-20T03:36:55.219Z,22.33
2023-05-20T03:37:55.247Z,22.33
2023-05-20T03:38:55.282Z,22.32
2023-05-20T03:39:55.323Z,22.32
2023-05-20T03:40:55.360Z,22.30
2023-05-20T03:41:55.387Z,22.33
2023-05-20T03:42:55.417Z,22.35
2023-05-20T03:43:55.461Z,22.32
2023-05-20T03:44:55.491Z,22.33
2023-05-20T03:45:55.528Z,22.33
2023-05-20T03:46:55.580Z,22.30
2023-05-20T03:47:55.630Z,22.33
2023-05-20T03:48:55.615Z,22.30
2023-05-20T03:49:55.657Z,22.33
2023-05-20T03:50:55.679Z,22.32
2023-05-20T03:51:55.690Z,22.32
2023-05-20T03:52:55.749Z,22.32
2023-05-20T03:53:55.765Z,22.32
2023-05-20T03:54:55.793Z,22.32
2023-05-20T03:55:55.820Z,22.33
2023-05-20T03:56:55.855Z,22.32
2023-05-20T03:57:55.891Z,22.30
2023-05-20T03:58:55.927Z,22.32
2023-05-20T03:59:55.970Z,22.29
2023-05-20T04:00:55.974Z,22.32
2023-05-20T04:01:56.035Z,22.32
2023-05-20T04:02:56.068Z,22.33
2023-05-20T04:03:56.102Z,22.32
2023-05-20T04:04:56.083Z,22.32
2023-05-20T04:05:56.117Z,22.29
2023-05-20T04:06:56.151Z,22.32
2023-05-20T04:07:56.184Z,22.32
2023-05-20T04:08:56.216Z,22.32
2023-05-20T04:09:56.224Z,22.33
2023-05-20T04:10:56.258Z,22.33
2023-05-20T04:11:56.298Z,22.30
2023-05-20T04:12:56.335Z,22.33
2023-05-20T04:13:56.371Z,22.33
2023-05-20T04:14:56.396Z,22.35
2023-05-20T04:15:56.443Z,22.32
2023-05-20T04:16:56.489Z,22.33
2023-05-20T04:17:56.503Z,22.33
2023-05-20T04:18:56.546Z,22.33
2023-05-20T04:19:56.525Z,22.33
2023-05-20T04:20:56.548Z,22.32
2023-05-20T04:21:56.579Z,22.33
2023-05-20T04:22:56.592Z,22.33
2023-05-20T04:23:56.628Z,22.33
2023-05-20T04:24:56.663Z,22.33
2023-05-20T04:25:56.707Z,22.32
2023-05-20T04:26:56.742Z,22.32
2023-05-20T04:27:56.763Z,22.35
2023-05-20T04:28:56.798Z,22.32
2023-05-20T04:29:56.837Z,22.30
2023-05-20T04:30:56.869Z,22.33
2023-05-20T04:31:56.961Z,22.30
2023-05-20T04:32:56.999Z,22.33
2023-05-20T04:33:56.978Z,22.33
2023-05-20T04:34:57.016Z,22.36
2023-05-20T04:35:57.044Z,22.35
2023-05-20T04:36:57.084Z,22.30
2023-05-20T04:37:57.120Z,22.33
2023-05-20T04:38:57.136Z,22.33
2023-05-20T04:39:57.264Z,22.35
2023-05-20T04:40:57.196Z,22.32
2023-05-20T04:41:57.226Z,22.32
2023-05-20T04:42:57.272Z,22.35
2023-05-20T04:43:57.287Z,22.33
2023-05-20T04:44:57.308Z,22.35
2023-05-20T04:45:57.372Z,22.36
2023-05-20T04:46:57.406Z,22.35
2023-05-20T04:47:57.891Z,22.33
2023-05-20T04:48:57.430Z,22.33
2023-05-20T04:49:57.436Z,22.33
2023-05-20T04:50:57.483Z,22.32
2023-05-20T04:51:57.498Z,22.35
2023-05-20T04:52:57.535Z,22.33
2023-05-20T04:53:57.568Z,22.35
2023-05-20T04:54:57.597Z,22.33
2023-05-20T04:55:57.621Z,22.35
2023-05-20T04:56:57.663Z,22.36
2023-05-20T04:57:57.741Z,22.33
2023-05-20T04:58:57.723Z,22.33
2023-05-20T04:59:57.751Z,22.35
2023-05-20T05:00:57.780Z,22.33
2023-05-20T05:01:57.911Z,22.36
2023-05-20T05:02:57.888Z,22.36
2023-05-20T05:03:57.875Z,22.35
2023-05-20T05:04:57.914Z,22.32
2023-05-20T05:05:57.919Z,22.37
2023-05-20T05:06:57.962Z,22.37
2023-05-20T05:07:57.982Z,22.39
2023-05-20T05:08:58.004Z,22.37
2023-05-20T05:09:58.018Z,22.33
2023-05-20T05:10:58.057Z,22.35
2023-05-20T05:11:58.073Z,22.35
2023-05-20T05:12:58.113Z,22.33
2023-05-20T05:13:58.143Z,22.35
2023-05-20T05:14:58.167Z,22.35
2023-05-20T05:15:58.239Z,22.35
2023-05-20T05:16:58.199Z,22.35
2023-05-20T05:17:58.278Z,22.35
2023-05-20T05:18:58.270Z,22.35
2023-05-20T05:19:58.291Z,22.33
2023-05-20T05:20:58.311Z,22.35
2023-05-20T05:21:58.341Z,22.36
2023-05-20T05:22:58.367Z,22.35
2023-05-20T05:23:58.574Z,22.36
2023-05-20T05:24:58.407Z,22.36
2023-05-20T05:25:58.428Z,22.35
2023-05-20T05:26:58.447Z,22.37
2023-05-20T05:27:58.472Z,22.36
2023-05-20T05:28:58.481Z,22.35
2023-05-20T05:29:58.501Z,22.36
2023-05-20T05:30:58.551Z,22.35
2023-05-20T05:31:58.553Z,22.36
2023-05-20T05:32:58.761Z,22.33
2023-05-20T05:33:58.586Z,22.35
2023-05-20T05:34:58.607Z,22.35
2023-05-20T05:35:58.634Z,22.36
2023-05-20T05:36:58.645Z,22.36
2023-05-20T05:37:58.687Z,22.33
2023-05-20T05:38:58.688Z,22.36
2023-05-20T05:39:58.685Z,22.35
2023-05-20T05:40:58.720Z,22.36
2023-05-20T05:41:58.730Z,22.35
2023-05-20T05:42:58.759Z,22.35
2023-05-20T05:43:58.789Z,22.35
2023-05-20T05:44:58.819Z,22.35
2023-05-20T05:45:58.824Z,22.35
2023-05-20T05:46:58.863Z,22.35
2023-05-20T05:47:58.926Z,22.35
2023-05-20T05:48:58.908Z,22.35
2023-05-20T05:49:58.899Z,22.36
2023-05-20T05:50:58.924Z,22.35
2023-05-20T05:51:58.959Z,22.36
2023-05-20T05:52:58.971Z,22.36
2023-05-20T05:53:58.977Z,22.35
2023-05-20T05:54:59.000Z,22.37
2023-05-20T05:55:59.042Z,22.37
2023-05-20T05:56:59.217Z,22.36
2023-05-20T05:57:59.049Z,22.37
2023-05-20T05:58:59.114Z,22.36
2023-05-20T05:59:59.107Z,22.37
2023-05-20T06:00:59.906Z,22.36
2023-05-20T06:01:59.176Z,22.36
2023-05-20T06:02:59.413Z,22.37
2023-05-20T06:03:59.198Z,22.36
2023-05-20T06:04:59.192Z,22.36
2023-05-20T06:05:59.184Z,22.35
2023-05-20T06:06:59.219Z,22.37
2023-05-20T06:07:59.259Z,22.35
2023-05-20T06:08:59.240Z,22.36
2023-05-20T06:09:59.241Z,22.35
2023-05-20T06:10:59.382Z,22.37
2023-05-20T06:11:59.394Z,22.37
2023-05-20T06:12:59.319Z,22.37
2023-05-20T06:13:59.315Z,22.37
2023-05-20T06:14:59.414Z,22.39
2023-05-20T06:15:59.429Z,22.39
2023-05-20T06:16:59.455Z,22.39
2023-05-20T06:17:59.495Z,22.36
2023-05-20T06:19:01.807Z,22.37
2023-05-20T06:19:59.407Z,22.39
2023-05-20T06:20:59.469Z,22.35
2023-05-20T06:21:59.504Z,22.37
2023-05-20T06:22:59.506Z,22.37
2023-05-20T06:23:59.529Z,22.37
2023-05-20T06:24:59.538Z,22.37
2023-05-20T06:25:59.550Z,22.37
2023-05-20T06:26:59.549Z,22.37
2023-05-20T06:27:59.568Z,22.37
2023-05-20T06:28:59.617Z,22.39
2023-05-20T06:29:59.622Z,22.37
2023-05-20T06:30:59.685Z,22.39
2023-05-20T06:31:59.720Z,22.40
2023-05-20T06:32:59.727Z,22.39
2023-05-20T06:33:59.691Z,22.40
2023-05-20T06:34:59.700Z,22.39
2023-05-20T06:35:59.711Z,22.39
2023-05-20T06:36:59.760Z,22.40
2023-05-20T06:37:59.867Z,22.37
2023-05-20T06:38:59.778Z,22.39
2023-05-20T06:39:59.775Z,22.39
2023-05-20T06:40:59.800Z,22.40
2023-05-20T06:41:59.812Z,22.40
2023-05-20T06:42:59.850Z,22.40
2023-05-20T06:43:59.869Z,22.40
2023-05-20T06:44:59.873Z,22.43
2023-05-20T06:45:59.925Z,22.44
2023-05-20T06:46:59.917Z,22.44
2023-05-20T06:47:59.998Z,22.44
2023-05-20T06:48:59.962Z,22.46
2023-05-20T06:49:59.963Z,22.46
2023-05-20T06:50:59.970Z,22.47
2023-05-20T06:52:00.009Z,22.47
2023-05-20T06:53:00.006Z,22.48
2023-05-20T06:54:00.047Z,22.48
2023-05-20T06:55:00.065Z,22.51
2023-05-20T06:56:00.072Z,22.53
2023-05-20T06:57:00.128Z,22.53
2023-05-20T06:58:00.111Z,22.53
2023-05-20T06:59:00.160Z,22.53
2023-05-20T07:00:00.174Z,22.53
2023-05-20T07:01:00.174Z,22.57
2023-05-20T07:02:00.229Z,22.56
2023-05-20T07:03:00.372Z,22.57
2023-05-20T07:04:00.311Z,22.58
2023-05-20T07:05:00.238Z,22.57
2023-05-20T07:06:00.255Z,22.60
2023-05-20T07:07:00.260Z,22.57
2023-05-20T07:08:00.384Z,22.58
2023-05-20T07:09:00.307Z,22.58
2023-05-20T07:10:00.291Z,22.58
2023-05-20T07:11:00.310Z,22.61
2023-05-20T07:12:00.322Z,22.63
2023-05-20T07:13:00.347Z,22.61
2023-05-20T07:14:00.416Z,22.64
2023-05-20T07:15:00.405Z,22.66
2023-05-20T07:16:00.513Z,22.67
2023-05-20T07:17:00.600Z,22.66
2023-05-20T07:18:00.667Z,22.64
2023-05-20T07:19:00.770Z,22.66
2023-05-20T07:20:00.831Z,22.66
2023-05-20T07:21:00.925Z,22.67
2023-05-20T07:22:01.004Z,22.68
2023-05-20T07:23:01.098Z,22.67
2023-05-20T07:24:01.186Z,22.66
2023-05-20T07:25:01.299Z,22.68
2023-05-20T07:26:01.351Z,22.68
2023-05-20T07:27:01.458Z,22.70
2023-05-20T07:28:01.559Z,22.66
2023-05-20T07:29:01.659Z,22.70
2023-05-20T07:30:01.713Z,22.68
2023-05-20T07:31:01.793Z,22.70
2023-05-20T07:32:02.127Z,22.68
2023-05-20T07:33:02.046Z,22.68
2023-05-20T07:34:02.060Z,22.72
2023-05-20T07:35:02.212Z,22.72
2023-05-20T07:36:02.258Z,22.71
2023-05-20T07:37:02.293Z,22.74
2023-05-20T07:38:02.374Z,22.74
2023-05-20T07:39:06.040Z,22.75
2023-05-20T07:40:03.451Z,22.75
2023-05-20T07:41:02.469Z,22.74
2023-05-20T07:42:02.507Z,22.75
2023-05-20T07:43:02.534Z,22.79
2023-05-20T07:44:02.552Z,22.79
2023-05-20T07:45:02.543Z,22.79
2023-05-20T07:46:02.587Z,22.81
2023-05-20T07:47:02.574Z,22.79
2023-05-20T07:48:02.767Z,22.81
2023-05-20T07:49:02.790Z,22.79
2023-05-20T07:50:02.825Z,22.83
2023-05-20T07:51:02.893Z,22.81
2023-05-20T07:52:03.321Z,22.83
2023-05-20T07:53:03.069Z,22.83
2023-05-20T07:54:03.202Z,22.86
2023-05-20T07:55:03.247Z,22.86
2023-05-20T07:56:03.350Z,22.87
2023-05-20T07:57:03.414Z,22.88
2023-05-20T07:58:03.499Z,22.90
2023-05-20T07:59:03.585Z,22.90
2023-05-20T08:00:03.654Z,22.93
2023-05-20T08:01:03.733Z,22.94
2023-05-20T08:02:03.844Z,22.98
2023-05-20T08:03:04.137Z,22.98
2023-05-20T08:04:04.123Z,22.98
2023-05-20T08:05:04.067Z,22.99
2023-05-20T08:06:04.158Z,22.99
2023-05-20T08:07:04.212Z,22.97
2023-05-20T08:08:04.281Z,22.99
2023-05-20T08:09:04.353Z,22.99
2023-05-20T08:10:04.420Z,23.01
2023-05-20T08:11:04.527Z,23.02
2023-05-20T08:12:04.559Z,23.05
2023-05-20T08:13:04.662Z,23.01
2023-05-20T08:14:04.706Z,23.05
2023-05-20T08:15:04.772Z,23.04
2023-05-20T08:16:04.841Z,23.04
2023-05-20T08:17:04.970Z,23.04
2023-05-20T08:18:05.044Z,23.02
2023-05-20T08:19:05.134Z,23.02
2023-05-20T08:20:05.123Z,23.05
2023-05-20T08:21:05.169Z,23.01
2023-05-20T08:22:05.239Z,23.04
2023-05-20T08:23:05.297Z,23.02
2023-05-20T08:24:05.374Z,23.01
2023-05-20T08:25:05.429Z,23.02
2023-05-20T08:26:05.502Z,23.01
2023-05-20T08:27:05.553Z,23.02
2023-05-20T08:28:05.688Z,23.04
2023-05-20T08:29:05.685Z,23.02
2023-05-20T08:30:05.754Z,23.01
2023-05-20T08:31:05.868Z,23.04
2023-05-20T08:32:05.850Z,23.01
2023-05-20T08:33:05.983Z,23.02
2023-05-20T08:34:06.012Z,23.04
2023-05-20T08:35:06.046Z,23.04
2023-05-20T08:36:06.129Z,23.04
2023-05-20T08:37:06.201Z,23.04
2023-05-20T08:38:06.272Z,23.01
2023-05-20T08:39:06.347Z,23.04
2023-05-20T08:40:06.416Z,23.02
2023-05-20T08:41:06.499Z,23.02
2023-05-20T08:42:06.566Z,23.01
2023-05-20T08:43:06.635Z,23.01
2023-05-20T08:44:06.707Z,23.01
2023-05-20T08:45:06.773Z,23.02
2023-05-20T08:46:06.983Z,23.02
2023-05-20T08:47:06.920Z,23.04
2023-05-20T08:48:07.116Z,23.04
2023-05-20T08:49:07.088Z,23.02
2023-05-20T08:50:07.143Z,23.02
2023-05-20T08:51:07.219Z,23.02
2023-05-20T08:52:07.330Z,23.02
2023-05-20T08:53:07.360Z,23.04
2023-05-20T08:54:07.458Z,23.02
2023-05-20T08:55:07.493Z,23.02
2023-05-20T08:56:07.565Z,23.01
2023-05-20T08:57:07.621Z,23.02
2023-05-20T08:58:07.696Z,23.02
2023-05-20T08:59:07.798Z,23.04
2023-05-20T09:00:07.812Z,23.02
2023-05-20T09:01:07.888Z,23.04
2023-05-20T09:02:08.003Z,23.04
2023-05-20T09:03:08.114Z,23.04
2023-05-20T09:04:08.072Z,23.04
2023-05-20T09:05:08.216Z,23.04
2023-05-20T09:06:08.210Z,23.04
2023-05-20T09:07:08.361Z,23.07
2023-05-20T09:08:08.401Z,23.04
2023-05-20T09:09:08.397Z,23.04
2023-05-20T09:10:08.460Z,23.04
2023-05-20T09:11:08.520Z,23.04
2023-05-20T09:12:08.584Z,23.02
2023-05-20T09:13:08.641Z,23.04
2023-05-20T09:14:08.706Z,23.02
2023-05-20T09:15:08.766Z,23.02
2023-05-20T09:16:08.868Z,23.04
2023-05-20T09:17:08.887Z,23.02
2023-05-20T09:18:08.986Z,23.04
2023-05-20T09:19:09.019Z,23.01
2023-05-20T09:20:09.083Z,23.05
2023-05-20T09:21:09.124Z,23.04
2023-05-20T09:22:09.198Z,23.04
2023-05-20T09:23:09.262Z,23.01
2023-05-20T09:24:09.333Z,23.02
2023-05-20T09:25:09.386Z,23.01
2023-05-20T09:26:09.455Z,23.02
2023-05-20T09:27:09.504Z,23.04
2023-05-20T09:28:09.567Z,23.02
2023-05-20T09:29:09.639Z,23.02
2023-05-20T09:30:09.689Z,23.04
2023-05-20T09:31:09.757Z,23.04
2023-05-20T09:32:09.880Z,23.07
2023-05-20T09:33:09.927Z,23.05
2023-05-20T09:34:09.947Z,23.09
2023-05-20T09:35:09.996Z,23.07
2023-05-20T09:36:10.050Z,23.07
2023-05-20T09:37:10.108Z,23.08
2023-05-20T09:38:10.170Z,23.09
2023-05-20T09:39:10.192Z,23.12
2023-05-20T09:40:10.209Z,23.11
2023-05-20T09:41:10.215Z,23.11
2023-05-20T09:42:10.222Z,23.09
2023-05-20T09:43:10.234Z,23.14
2023-05-20T09:44:10.254Z,23.15
2023-05-20T09:45:10.259Z,23.15
2023-05-20T09:46:10.346Z,23.18
2023-05-20T09:47:10.298Z,23.17
2023-05-20T09:48:10.365Z,23.18
2023-05-20T09:49:10.326Z,23.18
2023-05-20T09:50:10.351Z,23.18
2023-05-20T09:51:10.385Z,23.17
2023-05-20T09:52:10.444Z,23.18
2023-05-20T09:53:10.512Z,23.19
2023-05-20T09:54:10.584Z,23.19
2023-05-20T09:55:10.654Z,23.19
2023-05-20T09:56:10.707Z,23.21
2023-05-20T09:57:10.760Z,23.21
2023-05-20T09:58:10.817Z,23.21
2023-05-20T09:59:10.876Z,23.22
2023-05-20T10:00:10.929Z,23.19
2023-05-20T10:01:11.010Z,23.19
2023-05-20T10:02:11.082Z,23.23
2023-05-20T10:03:11.185Z,23.23
2023-05-20T10:04:11.152Z,23.23
2023-05-20T10:05:11.215Z,23.23
2023-05-20T10:06:11.259Z,23.25
2023-05-20T10:07:11.312Z,23.25
2023-05-20T10:08:11.365Z,23.25
2023-05-20T10:09:11.429Z,23.25
2023-05-20T10:10:11.462Z,23.26
2023-05-20T10:11:11.530Z,23.25
2023-05-20T10:12:11.536Z,23.28
2023-05-20T10:13:11.555Z,23.26
2023-05-20T10:14:11.583Z,23.26
2023-05-20T10:15:11.569Z,23.28
2023-05-20T10:16:11.620Z,23.28
2023-05-20T10:17:11.608Z,23.29
2023-05-20T10:18:11.629Z,23.29
2023-05-20T10:19:11.660Z,23.30
2023-05-20T10:20:11.651Z,23.29
2023-05-20T10:21:11.655Z,23.32
2023-05-20T10:22:11.678Z,23.29
2023-05-20T10:23:11.689Z,23.29
2023-05-20T10:24:11.764Z,23.30
2023-05-20T10:25:11.734Z,23.29
2023-05-20T10:26:11.755Z,23.32
2023-05-20T10:27:11.762Z,23.29
2023-05-20T10:28:11.795Z,23.29
2023-05-20T10:29:11.890Z,23.29
2023-05-20T10:30:11.908Z,23.30
2023-05-20T10:31:11.938Z,23.32
2023-05-20T10:32:11.989Z,23.30
2023-05-20T10:33:12.022Z,23.29
2023-05-20T10:34:11.980Z,23.30
2023-05-20T10:35:11.986Z,23.30
2023-05-20T10:36:12.013Z,23.32
2023-05-20T10:37:12.024Z,23.30
2023-05-20T10:38:12.048Z,23.30
2023-05-20T10:39:12.062Z,23.32
2023-05-20T10:40:12.076Z,23.29
2023-05-20T10:41:12.089Z,23.30
2023-05-20T10:42:12.119Z,23.29
2023-05-20T10:43:12.125Z,23.28
2023-05-20T10:44:12.132Z,23.32
2023-05-20T10:45:12.151Z,23.32
2023-05-20T10:46:21.812Z,23.32
2023-05-20T10:48:12.263Z,23.30
2023-05-20T10:49:12.330Z,23.30
2023-05-20T10:50:12.219Z,23.30
2023-05-20T10:51:12.225Z,23.30
2023-05-20T10:52:12.251Z,23.32
2023-05-20T10:53:18.802Z,23.33
2023-05-20T10:54:13.270Z,23.36
2023-05-20T10:55:12.283Z,23.33
2023-05-20T10:56:12.285Z,23.33
2023-05-20T10:57:12.278Z,23.35
2023-05-20T10:58:12.295Z,23.36
2023-05-20T10:59:12.309Z,23.36
2023-05-20T11:00:12.329Z,23.38
2023-05-20T11:01:12.342Z,23.38
2023-05-20T11:02:12.367Z,23.39
2023-05-20T11:03:12.447Z,23.38
2023-05-20T11:04:12.488Z,23.38
2023-05-20T11:05:12.399Z,23.41
2023-05-20T11:06:12.427Z,23.39
2023-05-20T11:07:12.438Z,23.39
2023-05-20T11:08:24.573Z,23.39
2023-05-20T11:09:13.469Z,23.42
2023-05-20T11:10:12.485Z,23.41
2023-05-20T11:11:12.498Z,23.42
2023-05-20T11:12:12.507Z,23.41
2023-05-20T11:13:12.601Z,23.42
2023-05-20T11:14:12.553Z,23.42
2023-05-20T11:15:12.598Z,23.42
2023-05-20T11:16:12.643Z,23.42
2023-05-20T11:17:12.658Z,23.44
2023-05-20T11:18:12.722Z,23.42
2023-05-20T11:19:12.683Z,23.44
2023-05-20T11:20:12.659Z,23.42
2023-05-20T11:21:12.683Z,23.45
2023-05-20T11:22:12.706Z,23.44
2023-05-20T11:23:12.725Z,23.42
2023-05-20T11:24:12.740Z,23.41
2023-05-20T11:25:12.762Z,23.42
2023-05-20T11:26:12.790Z,23.44
2023-05-20T11:27:12.801Z,23.42
2023-05-20T11:28:12.824Z,23.42
2023-05-20T11:29:12.846Z,23.44
2023-05-20T11:30:12.864Z,23.45
2023-05-20T11:31:12.901Z,23.41
2023-05-20T11:32:12.951Z,23.44
2023-05-20T11:33:12.988Z,23.41
2023-05-20T11:34:12.957Z,23.42
2023-05-20T11:35:12.987Z,23.42
2023-05-20T11:36:26.337Z,23.39
2023-05-20T11:37:14.022Z,23.39
2023-05-20T11:38:13.031Z,23.39
2023-05-20T11:39:13.061Z,23.38
2023-05-20T11:40:13.154Z,23.38
2023-05-20T11:41:13.089Z,23.39
2023-05-20T11:42:13.104Z,23.39
2023-05-20T11:43:13.112Z,23.39
2023-05-20T11:44:13.139Z,23.36
2023-05-20T11:45:13.157Z,23.35
2023-05-20T11:46:13.245Z,23.38
2023-05-20T11:47:13.200Z,23.38
2023-05-20T11:48:13.249Z,23.36
2023-05-20T11:49:13.232Z,23.36
2023-05-20T11:50:13.281Z,23.35
2023-05-20T11:51:13.253Z,23.32
2023-05-20T11:52:13.287Z,23.33
2023-05-20T11:53:13.299Z,23.32
2023-05-20T11:54:13.336Z,23.33
2023-05-20T11:55:13.363Z,23.32
2023-05-20T11:56:13.370Z,23.33
2023-05-20T11:57:13.404Z,23.33
2023-05-20T11:58:13.418Z,23.33
2023-05-20T11:59:13.437Z,23.35
2023-05-20T12:00:13.452Z,23.32
2023-05-20T12:01:21.687Z,23.33
2023-05-20T12:02:16.088Z,23.30
2023-05-20T12:03:13.938Z,23.33
2023-05-20T12:04:13.954Z,23.33
2023-05-20T12:05:13.843Z,23.33
2023-05-20T12:06:13.850Z,23.33
2023-05-20T12:07:13.850Z,23.32
2023-05-20T12:08:13.877Z,23.35
2023-05-20T12:09:13.895Z,23.33
2023-05-20T12:10:13.917Z,23.32
2023-05-20T12:11:13.929Z,23.33
2023-05-20T12:12:13.934Z,23.33
2023-05-20T12:13:13.958Z,23.35
2023-05-20T12:14:13.972Z,23.33
2023-05-20T12:15:13.983Z,23.33
2023-05-20T12:16:14.044Z,23.33
2023-05-20T12:17:13.999Z,23.33
2023-05-20T12:18:14.024Z,23.32
2023-05-20T12:19:14.080Z,23.32
2023-05-20T12:20:14.073Z,23.35
2023-05-20T12:21:14.061Z,23.33
2023-05-20T12:22:14.077Z,23.32
2023-05-20T12:23:14.086Z,23.30
2023-05-20T12:24:14.102Z,23.29
2023-05-20T12:25:14.124Z,23.32
2023-05-20T12:26:14.166Z,23.29
2023-05-20T12:27:14.142Z,23.29
2023-05-20T12:28:14.163Z,23.29
2023-05-20T12:29:14.177Z,23.32
2023-05-20T12:30:14.195Z,23.32
2023-05-20T12:31:14.230Z,23.30
2023-05-20T12:32:14.314Z,23.30
2023-05-20T12:33:14.234Z,23.32
2023-05-20T12:34:14.257Z,23.32
2023-05-20T12:35:14.271Z,23.35
2023-05-20T12:36:14.301Z,23.32
2023-05-20T12:37:14.325Z,23.33
2023-05-20T12:38:14.347Z,23.32
2023-05-20T12:39:14.345Z,23.33
2023-05-20T12:40:14.364Z,23.33
2023-05-20T12:41:14.431Z,23.33
2023-05-20T12:42:14.389Z,23.33
2023-05-20T12:43:14.399Z,23.35
2023-05-20T12:44:14.430Z,23.33
2023-05-20T12:45:14.439Z,23.36
2023-05-20T12:46:14.469Z,23.35
2023-05-20T12:47:14.557Z,23.35
2023-05-20T12:48:14.502Z,23.39
2023-05-20T12:49:14.500Z,23.36
2023-05-20T12:50:14.503Z,23.38
2023-05-20T12:51:14.530Z,23.35
2023-05-20T12:52:22.461Z,23.35
2023-05-20T12:53:15.553Z,23.36
2023-05-20T12:54:14.570Z,23.33